モントリオール/トルドー の空港の天気 - METARとTAF

モントリオール・ピエール・エリオット・トルドー国際空港 ( CYUL / YUL ) - カナダ ケベック州モントリオール
飛行場実況気象(Metar)
観測時間08/14 14:00 EDT (08/14 18:00 UTC)
風向・風速北 5m/s
視程10km以上
天気現象
少しの雲 雲底高度 1520m
少しの雲 雲底高度 7320m
気温26℃
湿度42%
気圧1020.2hPa
METARCYUL 141800Z 36010KT 330V050 30SM FEW050 FEW240 26/12 A3012 RMK CF1CI1 CF TR SLP202 DENSITY ALT 1200FT
過去の天気等 Google飛行場航空写真 Wunderground天気予報

過去48時間のMETAR

飛行場予報(TAF)
発表時間: 8/14 13:38 EDT (8/14 17:38 UTC)
予報対象時間: 14日14時 EDT ~ 15日14時 EDT
風向・風速北北東 5m/s 瞬間風速 10m/s
視程10km以上
少しの雲 雲底高度 1520m
14日20時 EDT ~ 14日22時 EDT に徐々に
風向・風速北東 4m/s
15日11時 EDT から
風向・風速東 5m/s
視程10km以上
少しの雲 雲底高度 1830m
TAF CYUL 141738Z 1418/1518 03010G20KT P6SM FEW050
BECMG 1500/1502 04008KT
FM151500 08010KT P6SM FEW060 RMK NXT FCST BY 142100Z